Time;durP1;ratioP1;P1;durP2;ratioP2;P2;SDS_P1;SDS_P2;PMS_P1;PMS_P2;Temp;Humidity;BMP_temperature;BMP_pressure;BME280_temperature;BME280_humidity;BME280_pressure;Samples;Min_cycle;Max_cycle;Signal;HPM_P1;HPM_P2
2022/02/21 00:00:26;;;;;;;;;;;9.20;82.30;;;;;;5078473;28;19964;-78
2022/02/21 00:02:52;;;;;;;;;;;9.30;82.60;;;;;;5078605;28;19908;-77
2022/02/21 00:05:18;;;;;;;;;;;9.30;82.60;;;;;;5074375;28;19908;-78
2022/02/21 00:07:44;;;;;;;;;;;9.30;82.70;;;;;;5078618;28;20715;-76
2022/02/21 00:10:11;;;;;;;;;;;9.40;82.90;;;;;;5078357;28;20003;-76
2022/02/21 00:12:37;;;;;;;;;;;9.40;83.00;;;;;;5078454;28;20082;-77
2022/02/21 00:15:03;;;;;;;;;;;9.40;82.80;;;;;;5078321;28;19916;-76
2022/02/21 00:17:29;;;;;;;;;;;9.40;82.90;;;;;;5078064;28;20168;-78
2022/02/21 00:19:54;;;;;;;;;;;9.40;82.90;;;;;;5078324;28;19944;-76
2022/02/21 00:22:20;;;;;;;;;;;9.30;82.60;;;;;;5077714;28;19915;-77
2022/02/21 00:24:45;;;;;;;;;;;9.30;81.70;;;;;;5077894;28;19904;-77
2022/02/21 00:27:11;;;;;;;;;;;9.20;80.90;;;;;;5078238;28;19916;-76
2022/02/21 00:29:37;;;;;;;;;;;9.10;80.70;;;;;;5078128;28;19914;-77
2022/02/21 00:32:02;;;;;;;;;;;9.10;78.60;;;;;;5077866;28;19909;-76
2022/02/21 00:34:28;;;;;;;;;;;9.00;78.20;;;;;;5077969;28;19909;-78
2022/02/21 00:36:54;;;;;;;;;;;9.00;77.20;;;;;;5078039;28;19924;-77
2022/02/21 00:39:19;;;;;;;;;;;8.90;77.70;;;;;;5077744;28;19942;-77
2022/02/21 00:41:45;;;;;;;;;;;8.90;77.80;;;;;;5078075;28;19915;-77
2022/02/21 00:44:11;;;;;;;;;;;8.90;77.10;;;;;;5077808;28;20371;-76
2022/02/21 00:46:36;;;;;;;;;;;8.80;76.70;;;;;;5069168;28;19913;-78
2022/02/21 00:49:03;;;;;;;;;;;8.80;76.70;;;;;;5073140;28;19940;-77
2022/02/21 00:51:29;;;;;;;;;;;8.80;76.70;;;;;;5059929;28;19916;-77
2022/02/21 00:53:55;;;;;;;;;;;8.80;76.60;;;;;;5077769;28;19909;-78
2022/02/21 00:56:20;;;;;;;;;;;8.90;76.70;;;;;;5077792;28;20042;-77
2022/02/21 00:58:46;;;;;;;;;;;8.90;75.80;;;;;;5077853;28;20003;-76
2022/02/21 01:01:12;;;;;;;;;;;8.90;75.90;;;;;;5059545;28;19952;-77
2022/02/21 01:03:38;;;;;;;;;;;9.00;75.50;;;;;;5077579;28;19946;-78
2022/02/21 01:06:04;;;;;;;;;;;9.00;75.60;;;;;;5059695;28;19915;-77
2022/02/21 01:08:29;;;;;;;;;;;9.00;74.40;;;;;;5077785;28;19931;-77
2022/02/21 01:10:55;;;;;;;;;;;8.90;74.70;;;;;;5077688;28;20007;-76
2022/02/21 01:13:21;;;;;;;;;;;8.90;75.60;;;;;;5077640;28;19931;-77
2022/02/21 01:15:46;;;;;;;;;;;8.80;75.80;;;;;;5077377;28;20968;-77
2022/02/21 01:18:12;;;;;;;;;;;8.80;76.10;;;;;;5077656;28;20395;-76
2022/02/21 01:20:38;;;;;;;;;;;8.70;76.60;;;;;;5059625;28;19931;-76
2022/02/21 01:23:03;;;;;;;;;;;8.70;77.10;;;;;;5077512;28;19916;-77
2022/02/21 01:25:29;;;;;;;;;;;8.70;77.50;;;;;;5077605;28;19909;-77
2022/02/21 01:27:55;;;;;;;;;;;8.80;78.10;;;;;;5077530;28;19912;-77
2022/02/21 01:30:20;;;;;;;;;;;8.70;77.60;;;;;;5059414;28;19908;-76
2022/02/21 01:32:46;;;;;;;;;;;8.80;78.10;;;;;;5077158;28;19908;-76
2022/02/21 01:35:12;;;;;;;;;;;8.80;78.40;;;;;;5080405;28;19917;-76
2022/02/21 01:37:37;;;;;;;;;;;8.80;78.90;;;;;;5063354;28;21026;-77
2022/02/21 01:40:07;;;;;;;;;;;8.80;79.40;;;;;;5063155;28;19908;-76
2022/02/21 01:42:33;;;;;;;;;;;8.80;79.80;;;;;;5081172;28;19915;-76
2022/02/21 01:44:59;;;;;;;;;;;8.70;80.20;;;;;;5081182;28;20005;-77
2022/02/21 01:47:24;;;;;;;;;;;8.70;80.50;;;;;;5049542;28;19917;-76
2022/02/21 01:49:50;;;;;;;;;;;8.60;80.70;;;;;;5081361;28;19916;-76
2022/02/21 01:52:16;;;;;;;;;;;8.50;80.70;;;;;;5081054;28;20387;-76
2022/02/21 01:54:42;;;;;;;;;;;8.50;80.80;;;;;;5081262;28;19974;-77
2022/02/21 01:57:08;;;;;;;;;;;8.40;80.70;;;;;;5080922;28;19916;-76
2022/02/21 01:59:35;;;;;;;;;;;8.40;80.10;;;;;;5081086;28;19920;-76
2022/02/21 02:02:01;;;;;;;;;;;8.40;80.30;;;;;;5080808;28;19958;-76
2022/02/21 02:04:26;;;;;;;;;;;8.40;80.50;;;;;;5080779;28;20367;-77
2022/02/21 02:06:52;;;;;;;;;;;8.40;80.50;;;;;;5062765;28;19909;-76
2022/02/21 02:09:18;;;;;;;;;;;8.50;80.50;;;;;;5062802;28;19964;-76
2022/02/21 02:11:44;;;;;;;;;;;8.50;80.90;;;;;;5062818;28;19916;-76
2022/02/21 02:14:28;;;;;;;;;;;8.50;80.70;;;;;;5080732;28;19908;-77
2022/02/21 02:16:54;;;;;;;;;;;8.60;81.10;;;;;;5080255;28;20410;-77
2022/02/21 02:19:20;;;;;;;;;;;8.60;80.60;;;;;;5080650;28;19970;-76
2022/02/21 02:21:48;;;;;;;;;;;8.60;80.30;;;;;;5080446;28;19908;-77
2022/02/21 02:24:13;;;;;;;;;;;8.60;80.10;;;;;;5080462;28;20362;-76
2022/02/21 02:26:40;;;;;;;;;;;8.50;80.10;;;;;;5080399;28;19916;-76
2022/02/21 02:29:06;;;;;;;;;;;8.50;79.40;;;;;;5062470;28;19912;-76
2022/02/21 02:31:32;;;;;;;;;;;8.50;79.10;;;;;;5080077;28;19953;-76
2022/02/21 02:33:58;;;;;;;;;;;8.40;78.60;;;;;;5062227;28;20293;-77
2022/02/21 02:36:24;;;;;;;;;;;8.40;78.80;;;;;;5080604;28;19912;-77
2022/02/21 02:38:49;;;;;;;;;;;8.30;79.10;;;;;;5062124;28;20004;-77
2022/02/21 02:41:15;;;;;;;;;;;8.30;79.20;;;;;;5080100;28;19987;-76
2022/02/21 02:43:40;;;;;;;;;;;8.30;79.40;;;;;;5080040;28;19921;-76
2022/02/21 02:46:06;;;;;;;;;;;8.20;79.30;;;;;;5056619;28;20287;-76
2022/02/21 02:48:32;;;;;;;;;;;8.20;79.20;;;;;;5071469;28;19908;-77
2022/02/21 02:50:58;;;;;;;;;;;8.10;79.20;;;;;;5079977;28;19908;-76
2022/02/21 02:53:23;;;;;;;;;;;8.10;79.00;;;;;;5080158;28;19957;-76
2022/02/21 02:55:49;;;;;;;;;;;8.00;79.00;;;;;;5079695;28;19912;-76
2022/02/21 02:58:15;;;;;;;;;;;8.00;79.10;;;;;;5080094;28;19915;-76
2022/02/21 03:00:40;;;;;;;;;;;8.00;79.30;;;;;;5079527;28;20014;-76
2022/02/21 03:03:06;;;;;;;;;;;7.90;79.20;;;;;;5079916;28;20003;-76
2022/02/21 03:05:32;;;;;;;;;;;7.90;79.40;;;;;;5079511;28;19915;-76
2022/02/21 03:07:57;;;;;;;;;;;7.90;79.10;;;;;;5080003;28;19908;-76
2022/02/21 03:10:23;;;;;;;;;;;7.80;79.20;;;;;;5079652;28;19916;-76
2022/02/21 03:12:49;;;;;;;;;;;7.80;79.10;;;;;;5079820;28;19913;-76
2022/02/21 03:15:14;;;;;;;;;;;7.80;79.40;;;;;;5079286;28;19912;-77
2022/02/21 03:17:40;;;;;;;;;;;7.70;79.30;;;;;;5079404;28;19973;-76
2022/02/21 03:20:06;;;;;;;;;;;7.70;78.90;;;;;;5079351;28;19909;-76
2022/02/21 03:22:31;;;;;;;;;;;7.70;79.00;;;;;;5079735;28;19908;-76
2022/02/21 03:24:58;;;;;;;;;;;7.70;79.30;;;;;;5079182;28;19947;-76
2022/02/21 03:27:24;;;;;;;;;;;7.60;79.00;;;;;;5079375;28;19908;-76
2022/02/21 03:29:49;;;;;;;;;;;7.70;78.40;;;;;;5079177;28;19909;-77
2022/02/21 03:32:15;;;;;;;;;;;7.70;78.20;;;;;;5078918;28;19908;-76
2022/02/21 03:34:41;;;;;;;;;;;7.70;77.80;;;;;;5079109;28;19927;-77
2022/02/21 03:37:07;;;;;;;;;;;7.70;78.10;;;;;;5079188;28;19913;-76
2022/02/21 03:39:32;;;;;;;;;;;7.80;77.90;;;;;;5078770;28;20364;-76
2022/02/21 03:41:58;;;;;;;;;;;7.80;77.60;;;;;;5079130;28;19944;-76
2022/02/21 03:44:23;;;;;;;;;;;7.70;77.80;;;;;;5078673;28;19943;-77
2022/02/21 03:46:49;;;;;;;;;;;7.70;77.50;;;;;;5068451;28;19909;-77
2022/02/21 03:49:15;;;;;;;;;;;7.80;77.50;;;;;;5057861;28;19915;-77
2022/02/21 03:51:40;;;;;;;;;;;7.70;77.80;;;;;;5078939;28;19909;-77
2022/02/21 03:54:07;;;;;;;;;;;7.80;77.80;;;;;;5078709;28;19939;-77
2022/02/21 03:56:33;;;;;;;;;;;7.70;78.00;;;;;;5060751;28;19920;-77
2022/02/21 03:58:59;;;;;;;;;;;7.70;77.80;;;;;;5078597;28;19909;-78
2022/02/21 04:01:24;;;;;;;;;;;7.70;78.50;;;;;;5078454;28;19913;-77
2022/02/21 04:03:50;;;;;;;;;;;7.70;78.40;;;;;;5078556;28;19909;-77
2022/02/21 04:06:15;;;;;;;;;;;7.70;78.50;;;;;;5060567;28;19916;-78
2022/02/21 04:08:41;;;;;;;;;;;7.70;78.60;;;;;;5078464;28;19915;-76
2022/02/21 04:11:07;;;;;;;;;;;7.80;78.80;;;;;;5078648;28;19915;-77
2022/02/21 04:13:32;;;;;;;;;;;7.80;78.60;;;;;;5060380;28;19933;-77
2022/02/21 04:15:58;;;;;;;;;;;7.90;78.60;;;;;;5078199;28;19977;-77
2022/02/21 04:18:24;;;;;;;;;;;7.90;78.30;;;;;;5060286;28;20411;-76
2022/02/21 04:20:49;;;;;;;;;;;7.90;78.60;;;;;;5078713;28;20392;-77
2022/02/21 04:23:15;;;;;;;;;;;7.90;78.30;;;;;;5078199;28;19908;-77
2022/02/21 04:25:41;;;;;;;;;;;7.90;78.00;;;;;;5078255;28;20359;-77
2022/02/21 04:28:07;;;;;;;;;;;7.90;78.10;;;;;;5078188;28;19931;-76
2022/02/21 04:30:33;;;;;;;;;;;7.90;77.90;;;;;;5077928;28;20321;-77
2022/02/21 04:32:58;;;;;;;;;;;8.00;78.00;;;;;;5077943;28;19955;-76
2022/02/21 04:35:25;;;;;;;;;;;7.90;77.30;;;;;;5078054;28;19920;-77
2022/02/21 04:37:51;;;;;;;;;;;7.90;77.60;;;;;;5078002;28;19958;-77
2022/02/21 04:40:18;;;;;;;;;;;7.90;77.70;;;;;;5059778;28;20370;-77
2022/02/21 04:42:44;;;;;;;;;;;7.80;77.80;;;;;;5058292;28;19915;-77
2022/02/21 04:45:10;;;;;;;;;;;7.70;78.00;;;;;;5080997;28;20298;-77
2022/02/21 04:47:36;;;;;;;;;;;7.70;77.80;;;;;;5058759;28;19920;-77
2022/02/21 04:50:03;;;;;;;;;;;7.70;78.30;;;;;;5078031;28;20302;-77
2022/02/21 04:52:30;;;;;;;;;;;7.70;78.10;;;;;;5077726;28;20050;-77
2022/02/21 04:54:56;;;;;;;;;;;7.60;78.30;;;;;;5077953;28;19909;-77
2022/02/21 04:57:21;;;;;;;;;;;7.60;78.70;;;;;;5077791;28;19916;-76
2022/02/21 04:59:47;;;;;;;;;;;7.60;78.30;;;;;;5076762;28;19956;-78
2022/02/21 05:02:12;;;;;;;;;;;7.50;78.10;;;;;;5076681;28;19919;-76
2022/02/21 05:04:38;;;;;;;;;;;7.50;78.20;;;;;;5076007;28;19916;-77
2022/02/21 05:07:04;;;;;;;;;;;7.50;78.20;;;;;;5077695;28;19909;-76
2022/02/21 05:09:30;;;;;;;;;;;7.50;78.40;;;;;;5077175;28;20005;-77
2022/02/21 05:11:55;;;;;;;;;;;7.50;78.50;;;;;;5078697;28;19912;-77
2022/02/21 05:14:21;;;;;;;;;;;7.50;78.50;;;;;;5094361;28;20062;-77
2022/02/21 05:16:46;;;;;;;;;;;7.50;78.70;;;;;;5061152;28;19939;-77
2022/02/21 05:19:12;;;;;;;;;;;7.60;78.90;;;;;;5059502;28;19955;-77
2022/02/21 05:21:38;;;;;;;;;;;7.60;78.80;;;;;;5077115;28;19908;-76
2022/02/21 05:24:04;;;;;;;;;;;7.80;80.50;;;;;;5076845;28;19913;-76
2022/02/21 05:26:29;;;;;;;;;;;7.80;81.20;;;;;;5077495;28;19913;-76
2022/02/21 05:28:55;;;;;;;;;;;7.80;81.00;;;;;;5075547;28;19916;-76
2022/02/21 05:31:23;;;;;;;;;;;7.80;81.10;;;;;;5075499;28;19927;-76
2022/02/21 05:33:50;;;;;;;;;;;7.80;81.00;;;;;;5074413;28;19962;-76
2022/02/21 05:36:15;;;;;;;;;;;7.80;81.10;;;;;;5076007;28;19916;-76
2022/02/21 05:38:41;;;;;;;;;;;7.70;81.30;;;;;;5076734;28;19912;-77
2022/02/21 05:41:07;;;;;;;;;;;7.70;81.40;;;;;;5063382;28;20390;-77
2022/02/21 05:43:33;;;;;;;;;;;7.60;81.40;;;;;;5079740;28;19920;-77
2022/02/21 05:45:59;;;;;;;;;;;7.60;81.50;;;;;;5073199;28;19913;-77
2022/02/21 05:48:25;;;;;;;;;;;7.60;81.80;;;;;;5080896;28;19919;-76
2022/02/21 05:50:50;;;;;;;;;;;7.60;81.70;;;;;;5077283;28;19909;-77
2022/02/21 05:53:16;;;;;;;;;;;7.60;81.80;;;;;;5077294;28;19915;-76
2022/02/21 05:55:41;;;;;;;;;;;7.50;81.90;;;;;;5066803;28;20009;-76
2022/02/21 05:58:08;;;;;;;;;;;7.60;81.80;;;;;;5074705;28;19913;-76
2022/02/21 06:00:34;;;;;;;;;;;7.60;81.60;;;;;;5084551;28;20482;-75
2022/02/21 06:03:00;;;;;;;;;;;7.60;81.40;;;;;;5078116;28;19963;-80
2022/02/21 06:05:25;;;;;;;;;;;7.70;81.40;;;;;;5067191;28;19920;-81
2022/02/21 06:07:51;;;;;;;;;;;7.80;81.00;;;;;;5053246;28;19922;-74
2022/02/21 06:10:16;;;;;;;;;;;7.90;81.00;;;;;;5073094;28;20030;-74
2022/02/21 06:12:42;;;;;;;;;;;7.90;81.10;;;;;;5059036;28;19909;-73
2022/02/21 06:15:08;;;;;;;;;;;8.00;81.00;;;;;;5075951;28;20290;-79
2022/02/21 06:17:52;;;;;;;;;;;8.00;80.70;;;;;;5075932;28;19913;-82
2022/02/21 06:20:18;;;;;;;;;;;8.00;80.70;;;;;;5058270;28;20283;-78
2022/02/21 06:22:43;;;;;;;;;;;8.00;80.70;;;;;;5079734;28;19916;-79
2022/02/21 06:25:09;;;;;;;;;;;8.00;80.40;;;;;;5080401;28;19941;-78
2022/02/21 06:27:35;;;;;;;;;;;8.00;80.80;;;;;;5079692;28;19916;-81
2022/02/21 06:30:01;;;;;;;;;;;7.90;81.00;;;;;;5061556;28;19935;-83
2022/02/21 06:32:27;;;;;;;;;;;7.90;82.10;;;;;;5062373;28;20321;-81
2022/02/21 06:34:52;;;;;;;;;;;7.80;81.70;;;;;;5062464;28;19913;-84
2022/02/21 06:37:18;;;;;;;;;;;7.70;82.20;;;;;;5079563;28;19916;-84
2022/02/21 06:39:44;;;;;;;;;;;7.60;82.30;;;;;;5079195;28;19919;-72
2022/02/21 06:42:10;;;;;;;;;;;7.60;82.90;;;;;;5080289;28;20352;-74
2022/02/21 06:44:36;;;;;;;;;;;7.60;83.30;;;;;;5078933;28;20437;-73
2022/02/21 06:47:01;;;;;;;;;;;7.60;83.90;;;;;;5065655;28;19966;-74
2022/02/21 06:49:27;;;;;;;;;;;7.70;84.30;;;;;;5078575;28;19922;-73
2022/02/21 06:51:54;;;;;;;;;;;7.70;84.40;;;;;;5075692;28;19912;-70
2022/02/21 06:54:19;;;;;;;;;;;7.70;84.80;;;;;;5079366;28;20411;-75
2022/02/21 06:56:45;;;;;;;;;;;7.70;85.00;;;;;;5049603;28;19916;-71
2022/02/21 06:59:11;;;;;;;;;;;7.70;85.40;;;;;;5075548;28;19912;-70
2022/02/21 07:01:36;;;;;;;;;;;7.70;85.30;;;;;;5079108;28;19909;-70
2022/02/21 07:04:02;;;;;;;;;;;7.80;86.20;;;;;;5076388;28;19913;-71
2022/02/21 07:06:28;;;;;;;;;;;7.80;87.30;;;;;;5070822;28;20000;-71
2022/02/21 07:08:53;;;;;;;;;;;7.80;87.80;;;;;;5079021;28;20011;-71
2022/02/21 07:11:19;;;;;;;;;;;7.80;88.60;;;;;;5078129;28;20367;-71
2022/02/21 07:13:45;;;;;;;;;;;7.80;88.40;;;;;;5079390;28;19912;-72
2022/02/21 07:16:10;;;;;;;;;;;7.80;88.70;;;;;;5064040;28;19966;-71
2022/02/21 07:18:37;;;;;;;;;;;7.80;88.50;;;;;;5072651;28;19916;-71
2022/02/21 07:21:05;;;;;;;;;;;7.90;89.20;;;;;;5079122;28;19908;-72
2022/02/21 07:23:31;;;;;;;;;;;7.90;89.00;;;;;;5077479;28;19908;-76
2022/02/21 07:25:57;;;;;;;;;;;8.00;90.00;;;;;;5079136;28;19909;-74
2022/02/21 07:28:23;;;;;;;;;;;8.00;89.60;;;;;;5077798;28;20295;-73
2022/02/21 07:30:48;;;;;;;;;;;8.00;90.20;;;;;;5068424;28;20003;-79
2022/02/21 07:33:14;;;;;;;;;;;8.00;89.80;;;;;;5072508;28;20007;-76
2022/02/21 07:35:40;;;;;;;;;;;8.00;89.60;;;;;;5062435;28;19920;-76
2022/02/21 07:38:05;;;;;;;;;;;8.00;90.10;;;;;;5051613;28;19968;-74
2022/02/21 07:40:31;;;;;;;;;;;8.10;90.30;;;;;;5071675;28;19934;-74
2022/02/21 07:42:57;;;;;;;;;;;8.10;90.20;;;;;;5073176;28;19917;-73
2022/02/21 07:45:24;;;;;;;;;;;8.10;90.10;;;;;;5079029;28;19912;-74
2022/02/21 07:47:51;;;;;;;;;;;8.20;89.90;;;;;;5077299;28;19912;-74
2022/02/21 07:50:17;;;;;;;;;;;8.10;89.50;;;;;;5047094;28;19915;-73
2022/02/21 07:52:43;;;;;;;;;;;8.10;89.30;;;;;;5069014;28;20299;-73
2022/02/21 07:55:09;;;;;;;;;;;8.10;89.00;;;;;;5060590;28;19920;-74
2022/02/21 07:57:37;;;;;;;;;;;8.20;88.90;;;;;;5075578;28;19919;-73
2022/02/21 08:00:03;;;;;;;;;;;8.20;88.90;;;;;;5077407;28;19916;-73
2022/02/21 08:02:29;;;;;;;;;;;8.30;88.70;;;;;;5078322;28;19958;-74
2022/02/21 08:04:55;;;;;;;;;;;8.30;88.40;;;;;;5075986;28;19917;-74
2022/02/21 08:07:20;;;;;;;;;;;8.40;88.30;;;;;;5078258;28;19913;-74
2022/02/21 08:09:46;;;;;;;;;;;8.50;88.20;;;;;;5078069;28;19908;-74
2022/02/21 08:12:11;;;;;;;;;;;8.50;87.50;;;;;;5078124;28;19916;-74
2022/02/21 08:14:37;;;;;;;;;;;8.50;86.90;;;;;;5077977;28;19909;-73
2022/02/21 08:17:03;;;;;;;;;;;8.50;86.70;;;;;;5077699;28;19912;-74
2022/02/21 08:19:28;;;;;;;;;;;8.40;86.90;;;;;;5060235;28;19909;-73
2022/02/21 08:21:54;;;;;;;;;;;8.40;87.40;;;;;;5077923;28;19912;-74
2022/02/21 08:24:20;;;;;;;;;;;8.40;87.30;;;;;;5077819;28;20003;-74
2022/02/21 08:26:46;;;;;;;;;;;8.50;87.30;;;;;;5078005;28;20286;-73
2022/02/21 08:29:11;;;;;;;;;;;8.60;86.90;;;;;;5077782;28;19909;-74
2022/02/21 08:31:37;;;;;;;;;;;8.70;87.00;;;;;;5059699;28;20436;-74
2022/02/21 08:34:03;;;;;;;;;;;8.70;87.40;;;;;;5077432;28;19912;-75
2022/02/21 08:36:29;;;;;;;;;;;8.90;87.40;;;;;;5078051;28;19919;-77
2022/02/21 08:38:55;;;;;;;;;;;9.00;86.70;;;;;;5077199;28;19912;-76
2022/02/21 08:41:21;;;;;;;;;;;9.10;86.90;;;;;;5052147;28;19916;-76
2022/02/21 08:43:46;;;;;;;;;;;9.10;86.90;;;;;;5077072;28;19921;-77
2022/02/21 08:46:13;;;;;;;;;;;9.20;86.90;;;;;;5072607;28;19908;-76
2022/02/21 08:48:39;;;;;;;;;;;9.20;86.80;;;;;;5051460;28;19916;-77
2022/02/21 08:51:05;;;;;;;;;;;9.20;87.00;;;;;;5076873;28;19913;-76
2022/02/21 08:53:31;;;;;;;;;;;9.20;87.50;;;;;;5077972;28;20375;-76
2022/02/21 08:55:56;;;;;;;;;;;9.10;88.20;;;;;;5076849;28;19919;-76
2022/02/21 08:58:22;;;;;;;;;;;9.10;89.40;;;;;;5077310;28;19916;-76
2022/02/21 09:00:48;;;;;;;;;;;9.10;90.20;;;;;;5077409;28;20390;-76
2022/02/21 09:03:13;;;;;;;;;;;9.00;90.30;;;;;;5077820;28;19908;-77
2022/02/21 09:05:39;;;;;;;;;;;9.00;90.40;;;;;;5077451;28;19916;-77
2022/02/21 09:08:05;;;;;;;;;;;9.00;90.10;;;;;;5078045;28;20329;-77
2022/02/21 09:10:31;;;;;;;;;;;9.00;90.20;;;;;;5077484;28;19930;-76
2022/02/21 09:12:57;;;;;;;;;;;9.00;89.00;;;;;;5077846;28;20429;-77
2022/02/21 09:15:23;;;;;;;;;;;9.10;89.10;;;;;;5077173;28;19916;-77
2022/02/21 09:17:49;;;;;;;;;;;9.20;89.10;;;;;;5077678;28;19913;-77
2022/02/21 09:20:15;;;;;;;;;;;9.50;89.30;;;;;;5077430;28;19916;-78
2022/02/21 09:22:41;;;;;;;;;;;9.90;88.90;;;;;;5077590;28;19908;-78
2022/02/21 09:25:07;;;;;;;;;;;10.60;88.60;;;;;;5059569;28;19908;-78
2022/02/21 09:27:33;;;;;;;;;;;11.40;84.90;;;;;;5077648;28;19908;-77
2022/02/21 09:29:58;;;;;;;;;;;11.90;82.20;;;;;;5077200;28;19909;-77
2022/02/21 09:32:25;;;;;;;;;;;12.20;80.20;;;;;;5077369;28;19908;-78
2022/02/21 09:34:52;;;;;;;;;;;12.40;78.70;;;;;;5077358;28;19915;-78
2022/02/21 09:37:18;;;;;;;;;;;12.50;77.70;;;;;;5077478;28;19913;-77
2022/02/21 09:39:44;;;;;;;;;;;12.40;76.40;;;;;;5059510;28;19915;-78
2022/02/21 09:42:10;;;;;;;;;;;12.20;76.90;;;;;;5077412;28;19915;-77
2022/02/21 09:44:36;;;;;;;;;;;11.80;77.90;;;;;;5077111;28;19952;-76
2022/02/21 09:47:02;;;;;;;;;;;11.50;79.30;;;;;;5065177;28;19916;-76
2022/02/21 09:49:28;;;;;;;;;;;11.10;81.70;;;;;;5075975;28;19908;-76
2022/02/21 09:51:54;;;;;;;;;;;10.80;83.20;;;;;;5077330;28;20003;-77
2022/02/21 09:54:20;;;;;;;;;;;10.60;84.70;;;;;;5077171;28;19948;-77
2022/02/21 09:56:48;;;;;;;;;;;10.60;87.00;;;;;;5080972;28;19923;-77
2022/02/21 09:59:14;;;;;;;;;;;10.90;86.80;;;;;;5080912;28;19908;-77
2022/02/21 10:01:42;;;;;;;;;;;11.20;84.70;;;;;;5080724;28;19991;-77
2022/02/21 10:04:10;;;;;;;;;;;11.50;83.70;;;;;;5062797;28;19996;-77
2022/02/21 10:06:35;;;;;;;;;;;12.00;83.50;;;;;;5063073;28;20333;-78
2022/02/21 10:09:09;;;;;;;;;;;12.50;81.90;;;;;;5080861;28;19909;-78
2022/02/21 10:11:36;;;;;;;;;;;13.00;79.30;;;;;;5080700;28;19958;-78
2022/02/21 10:14:08;;;;;;;;;;;13.20;77.60;;;;;;5081200;28;20379;-78
2022/02/21 10:16:41;;;;;;;;;;;13.30;77.10;;;;;;5080301;28;19912;-77
2022/02/21 10:19:10;;;;;;;;;;;13.50;75.80;;;;;;5080741;28;19936;-77
2022/02/21 10:21:48;;;;;;;;;;;14.00;73.00;;;;;;5080460;28;19933;-77
2022/02/21 10:24:14;;;;;;;;;;;14.50;73.00;;;;;;5080415;28;20382;-77
2022/02/21 10:26:41;;;;;;;;;;;14.90;69.70;;;;;;5080453;28;19969;-78
2022/02/21 10:29:08;;;;;;;;;;;15.40;69.80;;;;;;5080527;28;19955;-78
2022/02/21 10:31:34;;;;;;;;;;;15.80;68.00;;;;;;5080051;28;19909;-77
2022/02/21 10:34:01;;;;;;;;;;;15.90;63.90;;;;;;5080286;28;19908;-77
2022/02/21 10:36:34;;;;;;;;;;;16.10;63.60;;;;;;5080164;28;20001;-78
2022/02/21 10:39:01;;;;;;;;;;;16.10;64.10;;;;;;5079916;28;19909;-78
2022/02/21 10:41:43;;;;;;;;;;;16.20;62.30;;;;;;5080412;28;19909;-77
2022/02/21 10:44:15;;;;;;;;;;;16.50;62.80;;;;;;5079961;28;19920;-77
2022/02/21 10:46:43;;;;;;;;;;;16.90;63.00;;;;;;5070793;28;20394;-77
2022/02/21 10:49:10;;;;;;;;;;;17.10;61.50;;;;;;5076263;28;20011;-77
2022/02/21 10:51:36;;;;;;;;;;;17.30;61.90;;;;;;5080126;28;19951;-77
2022/02/21 10:54:07;;;;;;;;;;;17.10;59.20;;;;;;5079990;28;19916;-78
2022/02/21 10:56:45;;;;;;;;;;;17.20;59.30;;;;;;5080227;28;20286;-78
2022/02/21 10:59:20;;;;;;;;;;;17.00;59.80;;;;;;5079905;28;19908;-78
2022/02/21 11:01:49;;;;;;;;;;;17.20;60.10;;;;;;5079546;28;19909;-78
2022/02/21 11:04:15;;;;;;;;;;;17.40;58.90;;;;;;5079984;28;20002;-78
2022/02/21 11:06:40;;;;;;;;;;;17.40;58.40;;;;;;5079036;28;19973;-78
2022/02/21 11:09:09;;;;;;;;;;;17.60;58.30;;;;;;5079881;28;20011;-78
2022/02/21 11:11:42;;;;;;;;;;;17.80;59.80;;;;;;5079602;28;20000;-78
2022/02/21 11:14:08;;;;;;;;;;;18.10;61.00;;;;;;5079837;28;20282;-78
2022/02/21 11:16:37;;;;;;;;;;;18.30;59.20;;;;;;5079164;28;19963;-77
2022/02/21 11:19:02;;;;;;;;;;;18.40;58.30;;;;;;5062183;28;19909;-77
2022/02/21 11:21:33;;;;;;;;;;;18.30;56.00;;;;;;5078155;28;20368;-80
2022/02/21 11:24:00;;;;;;;;;;;18.10;56.40;;;;;;5079546;28;19915;-77
2022/02/21 11:26:28;;;;;;;;;;;18.00;56.30;;;;;;5079298;28;19912;-78
2022/02/21 11:29:14;;;;;;;;;;;18.10;56.70;;;;;;5079400;28;20383;-76
2022/02/21 11:31:40;;;;;;;;;;;18.20;54.40;;;;;;5056003;28;19909;-74
2022/02/21 11:34:06;;;;;;;;;;;18.50;55.90;;;;;;5079127;28;19908;-76
2022/02/21 11:36:33;;;;;;;;;;;18.90;58.60;;;;;;5079266;28;19935;-73
2022/02/21 11:38:59;;;;;;;;;;;19.30;56.50;;;;;;5060878;28;20007;-72
2022/02/21 11:41:33;;;;;;;;;;;19.60;55.30;;;;;;5067840;28;19940;-73
2022/02/21 11:44:17;;;;;;;;;;;19.70;53.80;;;;;;5078903;28;19926;-72
2022/02/21 11:46:42;;;;;;;;;;;19.60;54.60;;;;;;5051714;28;19908;-74
2022/02/21 11:49:08;;;;;;;;;;;19.20;51.20;;;;;;5074714;28;19949;-76
2022/02/21 11:51:38;;;;;;;;;;;18.80;54.70;;;;;;5061006;28;19976;-77
2022/02/21 11:54:13;;;;;;;;;;;18.30;54.60;;;;;;5060901;28;19916;-78
2022/02/21 11:56:48;;;;;;;;;;;17.80;56.10;;;;;;5078931;28;20354;-75
2022/02/21 11:59:22;;;;;;;;;;;17.10;57.10;;;;;;5078669;28;19909;-74
2022/02/21 12:01:49;;;;;;;;;;;16.90;57.00;;;;;;5078488;28;20355;-77
2022/02/21 12:04:16;;;;;;;;;;;17.00;57.70;;;;;;5078548;28;19909;-73
2022/02/21 12:06:52;;;;;;;;;;;17.30;56.20;;;;;;5078553;28;19909;-74
2022/02/21 12:09:17;;;;;;;;;;;17.50;55.70;;;;;;5078577;28;19947;-76
2022/02/21 12:11:43;;;;;;;;;;;17.90;58.40;;;;;;5078543;28;19908;-73
2022/02/21 12:14:09;;;;;;;;;;;18.00;57.30;;;;;;5078560;28;19908;-73
2022/02/21 12:16:54;;;;;;;;;;;18.30;55.60;;;;;;5078088;28;19916;-74
2022/02/21 12:19:27;;;;;;;;;;;18.40;57.80;;;;;;5078158;28;20329;-73
2022/02/21 12:22:28;;;;;;;;;;;17.90;55.60;;;;;;5078127;28;19909;-73
2022/02/21 12:25:05;;;;;;;;;;;17.60;56.50;;;;;;4999818;28;19909;-73
2022/02/21 12:27:31;;;;;;;;;;;16.70;55.90;;;;;;5069124;28;20318;-73
2022/02/21 12:29:57;;;;;;;;;;;16.40;57.50;;;;;;5077106;28;20047;-73
2022/02/21 12:32:28;;;;;;;;;;;16.10;56.90;;;;;;5059796;28;20368;-73
2022/02/21 12:34:55;;;;;;;;;;;16.10;58.70;;;;;;5078127;28;19909;-73
2022/02/21 12:37:20;;;;;;;;;;;16.10;58.70;;;;;;5078001;28;19912;-72
2022/02/21 12:39:46;;;;;;;;;;;15.90;57.40;;;;;;5077521;28;19915;-73
2022/02/21 12:42:12;;;;;;;;;;;16.00;56.10;;;;;;5060025;28;19908;-72
2022/02/21 12:44:38;;;;;;;;;;;16.20;55.50;;;;;;5055862;28;19921;-73
2022/02/21 12:47:07;;;;;;;;;;;16.50;56.20;;;;;;5045238;28;19920;-72
2022/02/21 12:49:36;;;;;;;;;;;16.80;55.70;;;;;;5056697;28;20136;-72
2022/02/21 12:52:06;;;;;;;;;;;17.20;55.50;;;;;;5057594;28;20348;-72
2022/02/21 12:54:33;;;;;;;;;;;17.40;54.20;;;;;;5044634;28;19952;-72
2022/02/21 12:56:59;;;;;;;;;;;17.60;54.00;;;;;;5057393;28;19935;-73
2022/02/21 12:59:30;;;;;;;;;;;17.70;55.30;;;;;;5057726;28;19944;-73
2022/02/21 13:01:56;;;;;;;;;;;17.60;54.80;;;;;;5057119;28;19920;-73
2022/02/21 13:04:23;;;;;;;;;;;17.40;55.80;;;;;;5057073;28;19952;-73
2022/02/21 13:06:50;;;;;;;;;;;17.20;55.30;;;;;;5056804;28;20007;-73
2022/02/21 13:09:19;;;;;;;;;;;16.90;55.90;;;;;;5057399;28;19913;-73
2022/02/21 13:11:45;;;;;;;;;;;16.50;54.60;;;;;;5056948;28;19916;-73
2022/02/21 13:14:11;;;;;;;;;;;16.00;55.20;;;;;;5056876;28;19909;-74
2022/02/21 13:16:54;;;;;;;;;;;15.70;54.80;;;;;;5057042;28;19980;-73
2022/02/21 13:19:24;;;;;;;;;;;15.60;55.30;;;;;;5056977;28;19909;-73
2022/02/21 13:21:49;;;;;;;;;;;15.70;56.30;;;;;;5056113;28;19919;-74
2022/02/21 13:24:17;;;;;;;;;;;16.00;56.10;;;;;;5056982;28;19936;-73
2022/02/21 13:26:45;;;;;;;;;;;16.30;57.40;;;;;;5043934;28;19916;-73
2022/02/21 13:29:24;;;;;;;;;;;16.60;57.20;;;;;;5057004;28;19909;-73
2022/02/21 13:31:50;;;;;;;;;;;16.60;54.40;;;;;;5061043;28;19921;-73
2022/02/21 13:34:16;;;;;;;;;;;16.60;55.40;;;;;;5061208;28;19948;-73
2022/02/21 13:36:42;;;;;;;;;;;16.40;55.20;;;;;;5061402;28;19920;-73
2022/02/21 13:39:08;;;;;;;;;;;16.40;57.50;;;;;;5061074;28;19909;-73
2022/02/21 13:41:45;;;;;;;;;;;16.30;56.70;;;;;;5061422;28;19916;-74
2022/02/21 13:44:19;;;;;;;;;;;16.10;58.20;;;;;;5073156;28;20353;-74
2022/02/21 13:46:45;;;;;;;;;;;16.00;60.00;;;;;;5070990;28;19944;-73
2022/02/21 13:49:10;;;;;;;;;;;15.70;55.80;;;;;;5077508;28;19912;-73
2022/02/21 13:51:36;;;;;;;;;;;15.70;57.90;;;;;;5062917;28;19918;-73
2022/02/21 13:54:02;;;;;;;;;;;15.60;58.00;;;;;;5080839;28;19915;-73
2022/02/21 13:56:27;;;;;;;;;;;15.50;57.20;;;;;;5081313;28;19958;-73
2022/02/21 13:58:53;;;;;;;;;;;15.20;57.70;;;;;;5080108;28;20368;-73
2022/02/21 14:01:26;;;;;;;;;;;15.20;57.90;;;;;;5080611;28;20354;-73
2022/02/21 14:03:53;;;;;;;;;;;15.20;59.90;;;;;;5080588;28;20379;-73
2022/02/21 14:06:20;;;;;;;;;;;15.10;60.10;;;;;;5080419;28;19916;-73
2022/02/21 14:08:47;;;;;;;;;;;15.00;60.60;;;;;;5080337;28;20306;-73
2022/02/21 14:11:13;;;;;;;;;;;14.90;61.00;;;;;;5080237;28;19916;-73
2022/02/21 14:13:40;;;;;;;;;;;14.90;61.60;;;;;;5080015;28;19952;-72
2022/02/21 14:16:06;;;;;;;;;;;14.90;61.50;;;;;;5080343;28;19939;-73
2022/02/21 14:18:34;;;;;;;;;;;14.90;61.00;;;;;;5080330;28;19915;-74
2022/02/21 14:21:00;;;;;;;;;;;14.90;61.40;;;;;;5080621;28;19915;-73
2022/02/21 14:23:25;;;;;;;;;;;14.90;62.10;;;;;;5080584;28;19916;-73